createdAt,value
2017-11-20T00:00:00.348Z,1015.71
2017-11-20T00:00:40.870Z,1015.73
2017-11-20T00:01:21.387Z,1015.68
2017-11-20T00:02:01.919Z,1015.69
2017-11-20T00:02:42.442Z,1015.66
2017-11-20T00:03:22.951Z,1015.6
2017-11-20T00:04:03.481Z,1015.6
2017-11-20T00:04:44.015Z,1015.59
2017-11-20T00:05:24.577Z,1015.58
2017-11-20T00:06:05.139Z,1015.6
2017-11-20T00:06:45.678Z,1015.58
2017-11-20T00:07:26.220Z,1015.55
2017-11-20T00:08:06.757Z,1015.5
2017-11-20T00:08:47.285Z,1015.48
2017-11-20T00:09:27.816Z,1015.51
2017-11-20T00:10:08.355Z,1015.51
2017-11-20T00:10:48.871Z,1015.45
2017-11-20T00:11:29.381Z,1015.44
2017-11-20T00:12:09.906Z,1015.43
2017-11-20T00:12:50.431Z,1015.44
2017-11-20T00:13:30.960Z,1015.42
2017-11-20T00:14:11.460Z,1015.41
2017-11-20T00:14:51.984Z,1015.43
2017-11-20T00:15:32.510Z,1015.41
2017-11-20T00:16:13.025Z,1015.42
2017-11-20T00:16:53.556Z,1015.42
2017-11-20T00:17:34.093Z,1015.41
2017-11-20T00:18:14.628Z,1015.42
2017-11-20T00:18:55.162Z,1015.44
2017-11-20T00:19:35.681Z,1015.48
2017-11-20T00:20:16.209Z,1015.43
2017-11-20T00:20:56.743Z,1015.43
2017-11-20T00:21:37.273Z,1015.43
2017-11-20T00:22:17.813Z,1015.42
2017-11-20T00:22:58.327Z,1015.41
2017-11-20T00:23:38.845Z,1015.42
2017-11-20T00:24:19.384Z,1015.42
2017-11-20T00:24:59.908Z,1015.4
2017-11-20T00:25:40.441Z,1015.4
2017-11-20T00:26:20.973Z,1015.39
2017-11-20T00:27:01.511Z,1015.37
2017-11-20T00:27:42.031Z,1015.39
2017-11-20T00:28:22.561Z,1015.36
2017-11-20T00:29:03.071Z,1015.38
2017-11-20T00:29:43.597Z,1015.35
2017-11-20T00:30:24.146Z,1015.33
2017-11-20T00:31:04.685Z,1015.31
2017-11-20T00:31:45.195Z,1015.29
2017-11-20T00:32:25.735Z,1015.35
2017-11-20T00:33:06.263Z,1015.32
2017-11-20T00:33:46.792Z,1015.31
2017-11-20T00:34:27.330Z,1015.25
2017-11-20T00:35:07.845Z,1015.24
2017-11-20T00:35:48.368Z,1015.23
2017-11-20T00:36:28.895Z,1015.26
2017-11-20T00:37:09.422Z,1015.31
2017-11-20T00:37:49.941Z,1015.26
2017-11-20T00:38:30.448Z,1015.27
2017-11-20T00:39:10.980Z,1015.27
2017-11-20T00:39:51.495Z,1015.24
2017-11-20T00:40:32.034Z,1015.27
2017-11-20T00:41:12.545Z,1015.27
2017-11-20T00:41:53.067Z,1015.24
2017-11-20T00:42:33.592Z,1015.26
2017-11-20T00:43:14.116Z,1015.22
2017-11-20T00:43:54.648Z,1015.23
2017-11-20T00:44:35.170Z,1015.24
2017-11-20T00:45:15.694Z,1015.28
2017-11-20T00:45:56.227Z,1015.24
2017-11-20T00:46:36.744Z,1015.18
2017-11-20T00:47:17.264Z,1015.21
2017-11-20T00:47:57.769Z,1015.22
2017-11-20T00:48:38.277Z,1015.24
2017-11-20T00:49:18.815Z,1015.23
2017-11-20T00:49:59.333Z,1015.28
2017-11-20T00:50:39.870Z,1015.24
2017-11-20T00:51:20.406Z,1015.22
2017-11-20T00:52:00.928Z,1015.25
2017-11-20T00:52:41.449Z,1015.27
2017-11-20T00:53:21.979Z,1015.25
2017-11-20T00:54:02.501Z,1015.21
2017-11-20T00:54:43.035Z,1015.21
2017-11-20T00:55:23.554Z,1015.22
2017-11-20T00:56:04.084Z,1015.23
2017-11-20T00:56:44.601Z,1015.24
2017-11-20T00:57:25.130Z,1015.25
2017-11-20T00:58:05.641Z,1015.26
2017-11-20T00:58:46.158Z,1015.27
2017-11-20T00:59:26.693Z,1015.25
2017-11-20T01:00:07.232Z,1015.27
2017-11-20T01:00:47.788Z,1015.25
2017-11-20T01:01:28.287Z,1015.24
2017-11-20T01:02:08.809Z,1015.27
2017-11-20T01:02:49.336Z,1015.31
2017-11-20T01:03:29.874Z,1015.26
2017-11-20T01:04:10.412Z,1015.29
2017-11-20T01:04:50.926Z,1015.34
2017-11-20T01:05:31.456Z,1015.35
2017-11-20T01:06:11.988Z,1015.34
2017-11-20T01:06:52.519Z,1015.38
2017-11-20T01:07:33.051Z,1015.38
2017-11-20T01:08:13.581Z,1015.36
2017-11-20T01:08:54.109Z,1015.44
2017-11-20T01:09:34.719Z,1015.42
2017-11-20T01:10:15.224Z,1015.44
2017-11-20T01:10:55.745Z,1015.46
2017-11-20T01:11:36.241Z,1015.49
2017-11-20T01:12:16.765Z,1015.46
2017-11-20T01:12:57.298Z,1015.49
2017-11-20T01:13:37.825Z,1015.46
2017-11-20T01:14:18.354Z,1015.45
2017-11-20T01:14:58.874Z,1015.49
2017-11-20T01:15:39.401Z,1015.44
2017-11-20T01:16:19.907Z,1015.44
2017-11-20T01:17:00.434Z,1015.43
2017-11-20T01:17:40.977Z,1015.44
2017-11-20T01:18:21.496Z,1015.46
2017-11-20T01:19:02.032Z,1015.48
2017-11-20T01:19:42.540Z,1015.49
2017-11-20T01:20:23.063Z,1015.49
2017-11-20T01:21:03.590Z,1015.52
2017-11-20T01:21:44.109Z,1015.48
2017-11-20T01:22:24.629Z,1015.47
2017-11-20T01:23:05.150Z,1015.46
2017-11-20T01:23:45.685Z,1015.46
2017-11-20T01:24:26.198Z,1015.48
2017-11-20T01:25:06.719Z,1015.47
2017-11-20T01:25:47.248Z,1015.48
2017-11-20T01:26:27.772Z,1015.5
2017-11-20T01:27:08.276Z,1015.53
2017-11-20T01:27:48.796Z,1015.51
2017-11-20T01:28:29.295Z,1015.47
2017-11-20T01:29:09.816Z,1015.44
2017-11-20T01:29:50.353Z,1015.47
2017-11-20T01:30:30.885Z,1015.51
2017-11-20T01:31:11.388Z,1015.53
2017-11-20T01:31:51.918Z,1015.56
2017-11-20T01:32:32.443Z,1015.59
2017-11-20T01:33:12.961Z,1015.54
2017-11-20T01:33:53.491Z,1015.56
2017-11-20T01:34:34.010Z,1015.59
2017-11-20T01:35:14.546Z,1015.57
2017-11-20T01:35:55.062Z,1015.58
2017-11-20T01:36:35.594Z,1015.58
2017-11-20T01:37:16.111Z,1015.54
2017-11-20T01:37:56.725Z,1015.57
2017-11-20T01:38:37.243Z,1015.61
2017-11-20T01:39:17.778Z,1015.55
2017-11-20T01:39:58.308Z,1015.57
2017-11-20T01:40:38.833Z,1015.65
2017-11-20T01:41:19.353Z,1015.58
2017-11-20T01:41:59.876Z,1015.58
2017-11-20T01:42:40.402Z,1015.58
2017-11-20T01:43:20.946Z,1015.55
2017-11-20T01:44:01.467Z,1015.6
2017-11-20T01:44:41.988Z,1015.56
2017-11-20T01:45:22.525Z,1015.55
2017-11-20T01:46:03.057Z,1015.51
2017-11-20T01:46:43.608Z,1015.57
2017-11-20T01:47:24.125Z,1015.55
2017-11-20T01:48:04.652Z,1015.56
2017-11-20T01:48:45.181Z,1015.54
2017-11-20T01:49:25.711Z,1015.54
2017-11-20T01:50:06.227Z,1015.56
2017-11-20T01:50:46.753Z,1015.59
2017-11-20T01:51:27.278Z,1015.52
2017-11-20T01:52:07.808Z,1015.53
2017-11-20T01:52:48.321Z,1015.53
2017-11-20T01:53:28.849Z,1015.55
2017-11-20T01:54:09.380Z,1015.5
2017-11-20T01:54:49.920Z,1015.55
2017-11-20T01:55:30.455Z,1015.5
2017-11-20T01:56:10.976Z,1015.47
2017-11-20T01:56:51.504Z,1015.47
2017-11-20T01:57:32.023Z,1015.57
2017-11-20T01:58:12.569Z,1015.52
2017-11-20T01:58:53.109Z,1015.51
2017-11-20T01:59:33.651Z,1015.48
2017-11-20T02:00:14.174Z,1015.56
2017-11-20T02:00:54.698Z,1015.58
2017-11-20T02:01:35.232Z,1015.58
2017-11-20T02:02:15.766Z,1015.59
2017-11-20T02:02:56.303Z,1015.52
2017-11-20T02:03:36.829Z,1015.58
2017-11-20T02:04:17.345Z,1015.53
2017-11-20T02:04:57.865Z,1015.54
2017-11-20T02:05:38.386Z,1015.51
2017-11-20T02:06:18.917Z,1015.5
2017-11-20T02:06:59.457Z,1015.54
2017-11-20T02:07:39.982Z,1015.5
2017-11-20T02:08:20.516Z,1015.52
2017-11-20T02:09:01.050Z,1015.55
2017-11-20T02:09:41.564Z,1015.53
2017-11-20T02:10:22.082Z,1015.5
2017-11-20T02:11:02.631Z,1015.57
2017-11-20T02:11:43.163Z,1015.55
2017-11-20T02:12:23.675Z,1015.5
2017-11-20T02:13:04.201Z,1015.48
2017-11-20T02:13:44.724Z,1015.45
2017-11-20T02:14:25.238Z,1015.41
2017-11-20T02:15:05.755Z,1015.46
2017-11-20T02:15:46.302Z,1015.45
2017-11-20T02:16:26.797Z,1015.4
2017-11-20T02:17:07.319Z,1015.42
2017-11-20T02:17:47.840Z,1015.42
2017-11-20T02:18:28.376Z,1015.42
2017-11-20T02:19:08.959Z,1015.39
2017-11-20T02:19:49.495Z,1015.43
2017-11-20T02:20:30.037Z,1015.42
2017-11-20T02:21:10.551Z,1015.41
2017-11-20T02:21:51.069Z,1015.37
2017-11-20T02:22:31.605Z,1015.38
2017-11-20T02:23:12.154Z,1015.39
2017-11-20T02:23:52.667Z,1015.36
2017-11-20T02:24:33.181Z,1015.34
2017-11-20T02:25:13.714Z,1015.36
2017-11-20T02:25:54.219Z,1015.32
2017-11-20T02:26:34.754Z,1015.3
2017-11-20T02:27:15.274Z,1015.3
2017-11-20T02:27:55.799Z,1015.33
2017-11-20T02:28:36.325Z,1015.3
2017-11-20T02:29:16.867Z,1015.32
2017-11-20T02:29:57.394Z,1015.3
2017-11-20T02:30:37.917Z,1015.29
2017-11-20T02:31:18.453Z,1015.27
2017-11-20T02:31:58.987Z,1015.25
2017-11-20T02:32:39.507Z,1015.27
2017-11-20T02:33:20.052Z,1015.27
2017-11-20T02:34:00.654Z,1015.14
2017-11-20T02:34:41.194Z,1015.21
2017-11-20T02:35:21.733Z,1015.2
2017-11-20T02:36:02.249Z,1015.19
2017-11-20T02:36:42.783Z,1015.2
2017-11-20T02:37:23.314Z,1015.21
2017-11-20T02:38:03.852Z,1015.16
2017-11-20T02:38:44.382Z,1015.18
2017-11-20T02:39:24.889Z,1015.17
2017-11-20T02:40:05.402Z,1015.11
2017-11-20T02:40:45.934Z,1015.14
2017-11-20T02:41:26.445Z,1015.13
2017-11-20T02:42:06.966Z,1015.1
2017-11-20T02:42:47.585Z,1015.13
2017-11-20T02:43:28.142Z,1015.12
2017-11-20T02:44:08.640Z,1015.12
2017-11-20T02:44:49.196Z,1015.14
2017-11-20T02:45:29.703Z,1015.11
2017-11-20T02:46:10.247Z,1015.14
2017-11-20T02:46:50.768Z,1015.19
2017-11-20T02:47:31.271Z,1015.2
2017-11-20T02:48:11.791Z,1015.19
2017-11-20T02:48:52.285Z,1015.18
2017-11-20T02:49:32.788Z,1015.2
2017-11-20T02:50:13.326Z,1015.23
2017-11-20T02:50:53.853Z,1015.2
2017-11-20T02:51:34.387Z,1015.19
2017-11-20T02:52:14.913Z,1015.18
2017-11-20T02:52:55.451Z,1015.19
2017-11-20T02:53:36.029Z,1015.21
2017-11-20T02:54:16.567Z,1015.24
2017-11-20T02:54:57.098Z,1015.18
2017-11-20T02:55:37.617Z,1015.17
2017-11-20T02:56:18.143Z,1015.19
2017-11-20T02:56:58.682Z,1015.16
2017-11-20T02:57:39.234Z,1015.17
2017-11-20T02:58:19.767Z,1015.18
2017-11-20T02:59:00.296Z,1015.14
2017-11-20T02:59:40.808Z,1015.12
2017-11-20T03:00:21.318Z,1015.14
2017-11-20T03:01:01.838Z,1015.14
2017-11-20T03:01:42.366Z,1015.15
2017-11-20T03:02:22.878Z,1015.1
2017-11-20T03:03:03.397Z,1015.1
2017-11-20T03:03:43.931Z,1015.1
2017-11-20T03:04:24.439Z,1015.1
2017-11-20T03:05:04.948Z,1015.12
2017-11-20T03:05:45.455Z,1015.16
2017-11-20T03:06:25.993Z,1015.09
2017-11-20T03:07:06.534Z,1015.08
2017-11-20T03:07:47.059Z,1015.08
2017-11-20T03:08:27.592Z,1015.11
2017-11-20T03:09:08.115Z,1015.1
2017-11-20T03:09:48.627Z,1015.08
2017-11-20T03:10:29.151Z,1015.05
2017-11-20T03:11:09.666Z,1015.07
2017-11-20T03:11:50.176Z,1015.07
2017-11-20T03:12:30.693Z,1015
2017-11-20T03:13:11.210Z,1015.07
2017-11-20T03:13:51.720Z,1015.05
2017-11-20T03:14:32.246Z,1015.08
2017-11-20T03:15:12.766Z,1015.04
2017-11-20T03:15:53.295Z,1015.08
2017-11-20T03:16:33.815Z,1015.07
2017-11-20T03:17:14.336Z,1015.08
2017-11-20T03:17:54.865Z,1015.07
2017-11-20T03:18:35.400Z,1015.07
2017-11-20T03:19:15.929Z,1015.07
2017-11-20T03:19:56.455Z,1015.1
2017-11-20T03:20:36.980Z,1015.09
2017-11-20T03:21:17.518Z,1015.11
2017-11-20T03:21:58.050Z,1015.11
2017-11-20T03:22:38.575Z,1015.16
2017-11-20T03:23:19.144Z,1015.06
2017-11-20T03:23:59.659Z,1015.08
2017-11-20T03:24:40.193Z,1015.08
2017-11-20T03:25:20.703Z,1015.08
2017-11-20T03:26:01.229Z,1015.07
2017-11-20T03:26:41.762Z,1015.1
2017-11-20T03:27:22.280Z,1015.07
2017-11-20T03:28:02.810Z,1015.09
2017-11-20T03:28:43.312Z,1015.09
2017-11-20T03:29:23.830Z,1015.04
2017-11-20T03:30:04.362Z,1015.03
2017-11-20T03:30:44.876Z,1015.06
2017-11-20T03:31:25.396Z,1015.04
2017-11-20T03:32:05.905Z,1015.06
2017-11-20T03:32:46.420Z,1015.08
2017-11-20T03:33:26.952Z,1015.06
2017-11-20T03:34:07.459Z,1015.12
2017-11-20T03:34:47.991Z,1015.06
2017-11-20T03:35:28.517Z,1015.04
2017-11-20T03:36:09.054Z,1015.02
2017-11-20T03:36:49.557Z,1015.03
2017-11-20T03:37:30.086Z,1015.06
2017-11-20T03:38:10.580Z,1015.05
2017-11-20T03:38:51.098Z,1015.05
2017-11-20T03:39:31.627Z,1015.07
2017-11-20T03:40:12.163Z,1015.07
2017-11-20T03:40:52.679Z,1015.11
2017-11-20T03:41:33.204Z,1015.14
2017-11-20T03:42:13.736Z,1015.11
2017-11-20T03:42:54.268Z,1015.1
2017-11-20T03:43:34.786Z,1015.12
2017-11-20T03:44:15.321Z,1015.11
2017-11-20T03:44:55.836Z,1015.11
2017-11-20T03:45:36.375Z,1015.14
2017-11-20T03:46:16.918Z,1015.16
2017-11-20T03:46:57.528Z,1015.23
2017-11-20T03:47:38.053Z,1015.22
2017-11-20T03:48:18.588Z,1015.15
2017-11-20T03:48:59.125Z,1015.2
2017-11-20T03:49:39.714Z,1015.22
2017-11-20T03:50:20.246Z,1015.18
2017-11-20T03:51:00.788Z,1015.16
2017-11-20T03:51:41.289Z,1015.18
2017-11-20T03:52:21.820Z,1015.1
2017-11-20T03:53:02.352Z,1015.16
2017-11-20T03:53:42.886Z,1015.16
2017-11-20T03:54:23.414Z,1015.13
2017-11-20T03:55:03.940Z,1015.16
2017-11-20T03:55:44.532Z,1015.16
2017-11-20T03:56:25.081Z,1015.1
2017-11-20T03:57:05.578Z,1015.16
2017-11-20T03:57:46.107Z,1015.17
2017-11-20T03:58:26.625Z,1015.15
2017-11-20T03:59:07.154Z,1015.18
2017-11-20T03:59:47.684Z,1015.15
2017-11-20T04:00:28.200Z,1015.15
2017-11-20T04:01:08.705Z,1015.13
2017-11-20T04:01:49.253Z,1015.18
2017-11-20T04:02:29.749Z,1015.16
2017-11-20T04:03:10.249Z,1015.13
2017-11-20T04:03:50.774Z,1015.13
2017-11-20T04:04:31.302Z,1015.16
2017-11-20T04:05:11.829Z,1015.16
2017-11-20T04:05:52.350Z,1015.16
2017-11-20T04:06:32.875Z,1015.13
2017-11-20T04:07:13.400Z,1015.1
2017-11-20T04:07:53.931Z,1015.12
2017-11-20T04:08:34.450Z,1015.1
2017-11-20T04:09:14.968Z,1015.14
2017-11-20T04:09:55.479Z,1015.1
2017-11-20T04:10:35.980Z,1015.08
2017-11-20T04:11:16.516Z,1015.04
2017-11-20T04:11:57.052Z,1015.08
2017-11-20T04:12:37.588Z,1015.09
2017-11-20T04:13:18.102Z,1015.11
2017-11-20T04:13:58.630Z,1015.13
2017-11-20T04:14:39.160Z,1015.13
2017-11-20T04:15:19.696Z,1015.17
2017-11-20T04:16:00.215Z,1015.16
2017-11-20T04:16:40.736Z,1015.15
2017-11-20T04:17:21.231Z,1015.16
2017-11-20T04:18:01.755Z,1015.2
2017-11-20T04:18:42.269Z,1015.23
2017-11-20T04:19:22.798Z,1015.21
2017-11-20T04:20:03.324Z,1015.14
2017-11-20T04:20:43.862Z,1015.15
2017-11-20T04:21:24.377Z,1015.15
2017-11-20T04:22:04.902Z,1015.16
2017-11-20T04:22:45.433Z,1015.13
2017-11-20T04:23:25.958Z,1015.15
2017-11-20T04:24:06.469Z,1015.14
2017-11-20T04:24:47.018Z,1015.15
2017-11-20T04:25:27.549Z,1015.13
2017-11-20T04:26:08.085Z,1015.11
2017-11-20T04:26:48.603Z,1015.13
2017-11-20T04:27:29.133Z,1015.1
2017-11-20T04:28:09.665Z,1015.12
2017-11-20T04:28:50.190Z,1015.11
2017-11-20T04:29:30.717Z,1015.1
2017-11-20T04:30:11.210Z,1015.09
2017-11-20T04:30:51.749Z,1015.09
2017-11-20T04:31:32.273Z,1015.09
2017-11-20T04:32:12.792Z,1015.03
2017-11-20T04:32:53.294Z,1015.09
2017-11-20T04:33:33.803Z,1015.06
2017-11-20T04:34:14.305Z,1015.06
2017-11-20T04:34:54.871Z,1015.1
2017-11-20T04:35:35.391Z,1015.05
2017-11-20T04:36:15.914Z,1015.04
2017-11-20T04:36:56.457Z,1015.05
2017-11-20T04:37:36.990Z,1015.06
2017-11-20T04:38:17.547Z,1015.08
2017-11-20T04:38:58.077Z,1015.05
2017-11-20T04:39:38.601Z,1015.04
2017-11-20T04:40:19.128Z,1014.99
2017-11-20T04:40:59.662Z,1015.02
2017-11-20T04:41:40.174Z,1015.06
2017-11-20T04:42:20.702Z,1014.98
2017-11-20T04:43:01.244Z,1015.02
2017-11-20T04:43:41.783Z,1015
2017-11-20T04:44:22.304Z,1014.98
2017-11-20T04:45:02.833Z,1014.96
2017-11-20T04:45:43.360Z,1014.99
2017-11-20T04:46:23.894Z,1014.99
2017-11-20T04:47:04.425Z,1015.01
2017-11-20T04:47:44.945Z,1015.03
2017-11-20T04:48:25.466Z,1015.03
2017-11-20T04:49:06.003Z,1014.99
2017-11-20T04:49:46.518Z,1015
2017-11-20T04:50:27.035Z,1014.97
2017-11-20T04:51:07.573Z,1014.98
2017-11-20T04:51:48.101Z,1014.96
2017-11-20T04:52:28.606Z,1014.96
2017-11-20T04:53:09.118Z,1014.99
2017-11-20T04:53:49.661Z,1014.99
2017-11-20T04:54:30.193Z,1014.96
2017-11-20T04:55:10.702Z,1014.96
2017-11-20T04:55:51.219Z,1014.95
2017-11-20T04:56:31.731Z,1014.93
2017-11-20T04:57:12.289Z,1014.94
2017-11-20T04:57:52.796Z,1014.96
2017-11-20T04:58:33.339Z,1014.94
2017-11-20T04:59:13.854Z,1014.92
2017-11-20T04:59:54.403Z,1014.94
2017-11-20T05:00:34.939Z,1014.93
2017-11-20T05:01:15.470Z,1014.9
2017-11-20T05:01:55.983Z,1014.92
2017-11-20T05:02:36.515Z,1014.95
2017-11-20T05:03:17.025Z,1014.93
2017-11-20T05:03:57.550Z,1014.97
2017-11-20T05:04:38.092Z,1014.96
2017-11-20T05:05:18.626Z,1015
2017-11-20T05:05:59.556Z,1014.95
2017-11-20T05:06:40.083Z,1014.96
2017-11-20T05:07:20.598Z,1015
2017-11-20T05:08:01.138Z,1015
2017-11-20T05:08:41.656Z,1014.96
2017-11-20T05:09:22.175Z,1014.94
2017-11-20T05:10:02.694Z,1014.96
2017-11-20T05:10:43.215Z,1014.94
2017-11-20T05:11:23.738Z,1014.94
2017-11-20T05:12:04.262Z,1014.98
2017-11-20T05:12:44.790Z,1015
2017-11-20T05:13:25.322Z,1014.98
2017-11-20T05:14:05.849Z,1014.96
2017-11-20T05:14:46.356Z,1014.98
2017-11-20T05:15:26.885Z,1014.93
2017-11-20T05:16:07.397Z,1014.91
2017-11-20T05:16:47.915Z,1014.96
2017-11-20T05:17:28.441Z,1014.99
2017-11-20T05:18:08.969Z,1014.92
2017-11-20T05:18:49.484Z,1014.95
2017-11-20T05:19:30.013Z,1014.92
2017-11-20T05:20:10.643Z,1014.91
2017-11-20T05:20:51.174Z,1014.93
2017-11-20T05:21:31.700Z,1014.89
2017-11-20T05:22:12.216Z,1014.89
2017-11-20T05:22:52.749Z,1014.91
2017-11-20T05:23:33.243Z,1014.92
2017-11-20T05:24:13.759Z,1014.87
2017-11-20T05:24:54.287Z,1014.84
2017-11-20T05:25:34.847Z,1014.87
2017-11-20T05:26:15.354Z,1014.87
2017-11-20T05:26:55.895Z,1014.82
2017-11-20T05:27:36.389Z,1014.82
2017-11-20T05:28:16.912Z,1014.89
2017-11-20T05:28:57.419Z,1014.81
2017-11-20T05:29:37.936Z,1014.82
2017-11-20T05:30:18.443Z,1014.81
2017-11-20T05:30:58.976Z,1014.78
2017-11-20T05:31:39.480Z,1014.79
2017-11-20T05:32:19.991Z,1014.82
2017-11-20T05:33:00.520Z,1014.82
2017-11-20T05:33:41.051Z,1014.83
2017-11-20T05:34:21.580Z,1014.82
2017-11-20T05:35:02.094Z,1014.83
2017-11-20T05:35:42.621Z,1014.8
2017-11-20T05:36:23.154Z,1014.8
2017-11-20T05:37:03.684Z,1014.81
2017-11-20T05:37:44.205Z,1014.85
2017-11-20T05:38:24.725Z,1014.78
2017-11-20T05:39:05.264Z,1014.82
2017-11-20T05:39:45.798Z,1014.81
2017-11-20T05:40:26.317Z,1014.81
2017-11-20T05:41:06.833Z,1014.84
2017-11-20T05:41:47.431Z,1014.81
2017-11-20T05:42:27.948Z,1014.8
2017-11-20T05:43:08.467Z,1014.81
2017-11-20T05:43:49.009Z,1014.78
2017-11-20T05:44:29.527Z,1014.8
2017-11-20T05:45:10.038Z,1014.77
2017-11-20T05:45:50.553Z,1014.8
2017-11-20T05:46:31.158Z,1014.74
2017-11-20T05:47:11.679Z,1014.74
2017-11-20T05:47:52.218Z,1014.75
2017-11-20T05:48:32.738Z,1014.71
2017-11-20T05:49:13.264Z,1014.77
2017-11-20T05:49:53.781Z,1014.73
2017-11-20T05:50:34.313Z,1014.73
2017-11-20T05:51:14.839Z,1014.77
2017-11-20T05:51:55.341Z,1014.78
2017-11-20T05:52:35.857Z,1014.76
2017-11-20T05:53:16.396Z,1014.76
2017-11-20T05:53:56.913Z,1014.77
2017-11-20T05:54:37.429Z,1014.77
2017-11-20T05:55:17.967Z,1014.8
2017-11-20T05:55:58.485Z,1014.78
2017-11-20T05:56:39.029Z,1014.82
2017-11-20T05:57:19.543Z,1014.81
2017-11-20T05:58:00.070Z,1014.84
2017-11-20T05:58:40.611Z,1014.84
2017-11-20T05:59:21.147Z,1014.8
2017-11-20T06:00:01.665Z,1014.82
2017-11-20T06:00:42.178Z,1014.84
2017-11-20T06:01:22.700Z,1014.81
2017-11-20T06:02:03.219Z,1014.79
2017-11-20T06:02:43.737Z,1014.82
2017-11-20T06:03:24.255Z,1014.82
2017-11-20T06:04:04.784Z,1014.84
2017-11-20T06:04:45.292Z,1014.79
2017-11-20T06:05:25.817Z,1014.76
2017-11-20T06:06:06.353Z,1014.76
2017-11-20T06:06:46.861Z,1014.79
2017-11-20T06:07:27.374Z,1014.79
2017-11-20T06:08:07.895Z,1014.81
2017-11-20T06:08:48.449Z,1014.81
2017-11-20T06:09:28.940Z,1014.8
2017-11-20T06:10:09.468Z,1014.81
2017-11-20T06:10:49.988Z,1014.83
2017-11-20T06:11:30.505Z,1014.85
2017-11-20T06:12:11.015Z,1014.83
2017-11-20T06:12:51.543Z,1014.82
2017-11-20T06:13:32.057Z,1014.82
2017-11-20T06:14:12.554Z,1014.82
2017-11-20T06:14:53.076Z,1014.84
2017-11-20T06:15:33.580Z,1014.87
2017-11-20T06:16:14.112Z,1014.83
2017-11-20T06:16:54.615Z,1014.81
2017-11-20T06:17:35.133Z,1014.86
2017-11-20T06:18:15.638Z,1014.85
2017-11-20T06:18:56.144Z,1014.82
2017-11-20T06:19:36.676Z,1014.83
2017-11-20T06:20:17.322Z,1014.83
2017-11-20T06:20:57.852Z,1014.86
2017-11-20T06:21:38.370Z,1014.85
2017-11-20T06:22:18.890Z,1014.87
2017-11-20T06:22:59.431Z,1014.92
2017-11-20T06:23:39.967Z,1014.93
2017-11-20T06:24:20.495Z,1014.95
2017-11-20T06:25:01.018Z,1014.98
2017-11-20T06:25:41.548Z,1014.92
2017-11-20T06:26:22.075Z,1014.92
2017-11-20T06:27:02.589Z,1014.89
2017-11-20T06:27:43.116Z,1014.88
2017-11-20T06:28:23.634Z,1014.89
2017-11-20T06:29:04.176Z,1014.87
2017-11-20T06:29:44.710Z,1014.87
2017-11-20T06:30:25.230Z,1014.89
2017-11-20T06:31:05.742Z,1014.92
2017-11-20T06:31:46.285Z,1014.9
2017-11-20T06:32:26.813Z,1014.93
2017-11-20T06:33:07.308Z,1014.93
2017-11-20T06:33:47.831Z,1014.91
2017-11-20T06:34:28.346Z,1014.92
2017-11-20T06:35:08.874Z,1014.94
2017-11-20T06:35:49.398Z,1014.92
2017-11-20T06:36:29.927Z,1014.95
2017-11-20T06:37:10.461Z,1014.92
2017-11-20T06:37:50.979Z,1014.9
2017-11-20T06:38:31.500Z,1014.94
2017-11-20T06:39:12.029Z,1014.92
2017-11-20T06:39:52.566Z,1014.88
2017-11-20T06:40:33.102Z,1014.9
2017-11-20T06:41:13.624Z,1014.89
2017-11-20T06:41:54.155Z,1014.89
2017-11-20T06:42:34.695Z,1014.87
2017-11-20T06:43:15.227Z,1014.84
2017-11-20T06:43:55.788Z,1014.83
2017-11-20T06:44:36.322Z,1014.84
2017-11-20T06:45:16.804Z,1014.84
2017-11-20T06:45:57.331Z,1014.81
2017-11-20T06:46:37.861Z,1014.85
2017-11-20T06:47:18.378Z,1014.85
2017-11-20T06:47:58.889Z,1014.81
2017-11-20T06:48:39.391Z,1014.81
2017-11-20T06:49:19.911Z,1014.78
2017-11-20T06:50:00.423Z,1014.78
2017-11-20T06:50:40.955Z,1014.82
2017-11-20T06:51:21.479Z,1014.82
2017-11-20T06:52:01.997Z,1014.81
2017-11-20T06:52:42.513Z,1014.77
2017-11-20T06:53:23.023Z,1014.79
2017-11-20T06:54:03.572Z,1014.85
2017-11-20T06:54:44.042Z,1014.89
2017-11-20T06:55:24.558Z,1014.82
2017-11-20T06:56:05.090Z,1014.83
2017-11-20T06:56:45.619Z,1014.84
2017-11-20T06:57:26.161Z,1014.82
2017-11-20T06:58:06.683Z,1014.85
2017-11-20T06:58:47.185Z,1014.84
2017-11-20T06:59:27.691Z,1014.84
2017-11-20T07:00:08.231Z,1014.86
2017-11-20T07:00:48.748Z,1014.88
2017-11-20T07:01:29.257Z,1014.88
2017-11-20T07:02:09.760Z,1014.84
2017-11-20T07:02:50.286Z,1014.82
2017-11-20T07:03:30.798Z,1014.81
2017-11-20T07:04:11.300Z,1014.8
2017-11-20T07:04:51.824Z,1014.79
2017-11-20T07:05:32.342Z,1014.84
2017-11-20T07:06:12.843Z,1014.87
2017-11-20T07:06:53.373Z,1014.89
2017-11-20T07:07:33.876Z,1014.91
2017-11-20T07:08:14.398Z,1014.9
2017-11-20T07:08:54.917Z,1014.93
2017-11-20T07:09:35.427Z,1014.93
2017-11-20T07:10:15.953Z,1014.88
2017-11-20T07:10:56.465Z,1014.93
2017-11-20T07:11:36.971Z,1014.91
2017-11-20T07:12:17.509Z,1014.93
2017-11-20T07:12:58.022Z,1014.95
2017-11-20T07:13:38.522Z,1014.92
2017-11-20T07:14:19.072Z,1014.93
2017-11-20T07:14:59.570Z,1014.96
2017-11-20T07:15:40.138Z,1014.94
2017-11-20T07:16:20.649Z,1014.92
2017-11-20T07:17:01.163Z,1014.97
2017-11-20T07:17:41.682Z,1014.96
2017-11-20T07:18:22.201Z,1014.93
2017-11-20T07:19:02.721Z,1014.97
2017-11-20T07:19:43.244Z,1014.97
2017-11-20T07:20:23.784Z,1014.97
2017-11-20T07:21:04.326Z,1014.97
2017-11-20T07:21:44.836Z,1014.96
2017-11-20T07:22:25.356Z,1014.94
2017-11-20T07:23:05.871Z,1015.01
2017-11-20T07:23:46.398Z,1014.96
2017-11-20T07:24:26.914Z,1014.96
2017-11-20T07:25:07.430Z,1014.98
2017-11-20T07:25:47.944Z,1014.99
2017-11-20T07:26:28.449Z,1014.97
2017-11-20T07:27:08.936Z,1014.99
2017-11-20T07:27:49.464Z,1014.96
2017-11-20T07:28:29.987Z,1014.94
2017-11-20T07:29:10.516Z,1014.95
2017-11-20T07:29:51.031Z,1014.91
2017-11-20T07:30:31.565Z,1014.94
2017-11-20T07:31:12.686Z,1014.94
2017-11-20T07:31:54.303Z,1014.94
2017-11-20T07:32:34.834Z,1014.96
2017-11-20T07:33:15.356Z,1014.97
2017-11-20T07:33:55.877Z,1015
2017-11-20T07:34:36.389Z,1014.99
2017-11-20T07:35:16.927Z,1015
2017-11-20T07:35:57.427Z,1015
2017-11-20T07:36:37.950Z,1015.01
2017-11-20T07:37:18.461Z,1015.04
2017-11-20T07:37:58.990Z,1015.06
2017-11-20T07:38:39.512Z,1015.07
2017-11-20T07:39:20.038Z,1015.05
2017-11-20T07:40:00.564Z,1015.06
2017-11-20T07:40:41.100Z,1015.04
2017-11-20T07:41:21.613Z,1015.04
2017-11-20T07:42:02.130Z,1015.07
2017-11-20T07:42:42.657Z,1015.1
2017-11-20T07:43:23.179Z,1015.11
2017-11-20T07:44:03.696Z,1015.14
2017-11-20T07:44:44.198Z,1015.16
2017-11-20T07:45:24.708Z,1015.18
2017-11-20T07:46:05.234Z,1015.18
2017-11-20T07:46:45.754Z,1015.18
2017-11-20T07:47:26.264Z,1015.18
2017-11-20T07:48:06.816Z,1015.19
2017-11-20T07:48:47.348Z,1015.21
2017-11-20T07:49:27.871Z,1015.27
2017-11-20T07:50:08.385Z,1015.32
2017-11-20T07:50:48.912Z,1015.3
2017-11-20T07:51:29.437Z,1015.4
2017-11-20T07:52:09.971Z,1015.41
2017-11-20T07:52:50.486Z,1015.47
2017-11-20T07:53:31.016Z,1015.28
2017-11-20T07:54:11.554Z,1015.38
2017-11-20T07:54:52.062Z,1015.29
2017-11-20T07:55:32.585Z,1015.34
2017-11-20T07:56:13.112Z,1015.34
2017-11-20T07:56:53.643Z,1015.34
2017-11-20T07:57:34.166Z,1015.38
2017-11-20T07:58:14.683Z,1015.36
2017-11-20T07:58:55.199Z,1015.3
2017-11-20T07:59:35.733Z,1015.33
2017-11-20T08:00:16.261Z,1015.38
2017-11-20T08:00:56.768Z,1015.38
2017-11-20T08:01:37.300Z,1015.38
2017-11-20T08:02:17.808Z,1015.39
2017-11-20T08:02:58.338Z,1015.39
2017-11-20T08:03:38.865Z,1015.43
2017-11-20T08:04:19.388Z,1015.39
2017-11-20T08:04:59.922Z,1015.44
2017-11-20T08:05:40.463Z,1015.41
2017-11-20T08:06:20.989Z,1015.38
2017-11-20T08:07:01.497Z,1015.41
2017-11-20T08:07:42.029Z,1015.42
2017-11-20T08:08:22.558Z,1015.39
2017-11-20T08:09:03.067Z,1015.39
2017-11-20T08:09:43.591Z,1015.47
2017-11-20T08:10:24.124Z,1015.44
2017-11-20T08:11:04.629Z,1015.45
2017-11-20T08:11:45.139Z,1015.44